createdAt,value
2022-11-13T00:01:35.275Z,94937.19
2022-11-13T00:16:36.808Z,94929.03
2022-11-13T00:31:38.360Z,94933.16
2022-11-13T00:46:39.834Z,94918.03
2022-11-13T01:01:41.394Z,94909.69
2022-11-13T01:16:42.927Z,94914.88
2022-11-13T01:31:44.400Z,94913.53
2022-11-13T01:46:48.777Z,94899.41
2022-11-13T02:01:50.380Z,94885.66
2022-11-13T02:16:53.593Z,94887.41
2022-11-13T02:31:55.821Z,94884.38
2022-11-13T02:46:57.402Z,94882.84
2022-11-13T03:01:58.889Z,94893.09
2022-11-13T03:17:00.397Z,94895.06
2022-11-13T03:32:03.353Z,94886.66
2022-11-13T03:47:04.846Z,94889.59
2022-11-13T04:02:06.366Z,94897.50
2022-11-13T04:17:07.941Z,94902.56
2022-11-13T04:32:09.418Z,94898.41
2022-11-13T04:47:10.936Z,94887.00
2022-11-13T05:02:12.449Z,94906.97
2022-11-13T05:17:14.357Z,94910.25
2022-11-13T05:32:15.897Z,94907.44
2022-11-13T05:47:17.382Z,94922.63
2022-11-13T06:02:18.899Z,94929.00
2022-11-13T06:17:20.436Z,94942.28
2022-11-13T06:32:21.910Z,94939.72
2022-11-13T06:47:23.359Z,94939.22
2022-11-13T07:02:24.842Z,94937.72
2022-11-13T07:17:27.981Z,94947.16
2022-11-13T07:32:29.437Z,94951.28
2022-11-13T07:47:30.962Z,94957.38
2022-11-13T08:02:32.485Z,94960.56
2022-11-13T08:17:33.988Z,94957.03
2022-11-13T08:32:35.436Z,94952.75
2022-11-13T08:47:37.118Z,94970.81
2022-11-13T09:02:38.654Z,94963.34
2022-11-13T09:17:40.379Z,94975.63
2022-11-13T09:32:41.878Z,94963.16
2022-11-13T09:47:44.768Z,94938.47
2022-11-13T10:02:55.119Z,94936.41
2022-11-13T10:18:02.353Z,94934.06
2022-11-13T10:33:08.313Z,94925.03
2022-11-13T10:48:19.812Z,94909.66
2022-11-13T11:03:24.918Z,94900.06
2022-11-13T11:18:34.279Z,94888.91
2022-11-13T11:33:37.556Z,94888.81
2022-11-13T11:48:39.408Z,94882.66
2022-11-13T12:03:40.886Z,94866.53
2022-11-13T12:19:01.271Z,94862.25
2022-11-13T12:34:19.034Z,94855.00
2022-11-13T12:49:23.334Z,94845.88
2022-11-13T13:04:27.919Z,94848.56
2022-11-13T13:19:30.892Z,94840.50
2022-11-13T13:34:41.293Z,94838.91
2022-11-13T13:49:42.828Z,94837.38
2022-11-13T14:04:48.395Z,94834.94
2022-11-13T14:19:51.122Z,94815.44
2022-11-13T14:34:54.154Z,94825.44
2022-11-13T14:49:55.660Z,94820.72
2022-11-13T15:04:57.115Z,94806.28
2022-11-13T15:19:58.617Z,94815.72
2022-11-13T15:35:00.107Z,94810.59
2022-11-13T15:50:13.464Z,94806.06
2022-11-13T16:05:16.483Z,94806.03
2022-11-13T16:20:18.176Z,94810.78
2022-11-13T16:35:20.044Z,94823.59
2022-11-13T16:50:28.067Z,94812.59
2022-11-13T17:05:29.606Z,94818.94
2022-11-13T17:20:31.092Z,94823.75
2022-11-13T17:35:32.534Z,94816.47
2022-11-13T17:50:34.103Z,94824.88
2022-11-13T18:05:40.539Z,94806.06
2022-11-13T18:20:42.379Z,94795.91
2022-11-13T18:35:43.945Z,94808.59
2022-11-13T18:50:54.565Z,94802.94
2022-11-13T19:05:56.011Z,94800.56
2022-11-13T19:20:57.473Z,94810.09
2022-11-13T19:35:58.926Z,94807.06
2022-11-13T19:51:04.270Z,94818.13
2022-11-13T20:06:06.298Z,94809.16
2022-11-13T20:21:07.878Z,94795.56
2022-11-13T20:36:09.666Z,94783.34
2022-11-13T20:51:13.426Z,94774.13
2022-11-13T21:06:16.354Z,94761.06
2022-11-13T21:21:19.500Z,94758.94
2022-11-13T21:36:22.274Z,94765.69
2022-11-13T21:51:23.750Z,94771.97
2022-11-13T22:16:09.494Z,94751.59
2022-11-13T22:31:15.551Z,94732.28
2022-11-13T22:46:18.261Z,94708.88
2022-11-13T23:01:24.533Z,94715.22
2022-11-13T23:16:26.873Z,94703.09
2022-11-13T23:31:28.355Z,94699.56
2022-11-13T23:46:29.795Z,94681.59
